createdAt,value
2022-12-12T00:02:45.254Z,98540.11
2022-12-12T00:06:47.344Z,98533.31
2022-12-12T00:10:49.424Z,98531.34
2022-12-12T00:14:51.434Z,98537.69
2022-12-12T00:18:53.527Z,98530.35
2022-12-12T00:22:55.471Z,98526.30
2022-12-12T00:26:57.373Z,98526.95
2022-12-12T00:30:59.757Z,98522.60
2022-12-12T00:35:01.884Z,98513.56
2022-12-12T00:39:04.105Z,98515.44
2022-12-12T00:43:06.115Z,98511.36
2022-12-12T00:47:08.426Z,98506.73
2022-12-12T00:51:14.307Z,98502.84
2022-12-12T00:55:16.208Z,98498.98
2022-12-12T00:59:19.341Z,98501.46
2022-12-12T01:03:21.761Z,98499.48
2022-12-12T01:07:23.749Z,98496.49
2022-12-12T01:11:25.873Z,98499.31
2022-12-12T01:15:27.951Z,98497.82
2022-12-12T01:19:29.867Z,98504.15
2022-12-12T01:23:31.755Z,98498.73
2022-12-12T01:27:33.683Z,98494.70
2022-12-12T01:31:35.657Z,98498.53
2022-12-12T01:35:37.604Z,98497.70
2022-12-12T01:39:39.504Z,98504.67
2022-12-12T01:43:42.127Z,98506.54
2022-12-12T01:47:44.025Z,98507.48
2022-12-12T01:51:47.705Z,98500.87
2022-12-12T01:55:50.234Z,98506.52
2022-12-12T01:59:52.681Z,98516.95
2022-12-12T02:03:55.376Z,98520.69
2022-12-12T02:08:00.966Z,98521.33
2022-12-12T02:12:03.717Z,98516.50
2022-12-12T02:16:39.621Z,98516.92
2022-12-12T02:21:26.372Z,98512.80
2022-12-12T02:25:59.788Z,98506.03
2022-12-12T02:30:17.087Z,98504.34
2022-12-12T02:34:38.424Z,98509.11
2022-12-12T02:39:09.334Z,98505.02
2022-12-12T02:43:14.367Z,98503.90
2022-12-12T02:47:22.723Z,98502.97
2022-12-12T02:51:26.833Z,98497.41
2022-12-12T02:55:32.476Z,98495.16
2022-12-12T02:59:40.899Z,98491.54
2022-12-12T03:04:16.573Z,98483.81
2022-12-12T03:08:35.399Z,98477.38
2022-12-12T03:13:00.126Z,98475.96
2022-12-12T03:17:13.482Z,98476.19
2022-12-12T03:21:35.589Z,98480.63
2022-12-12T03:25:52.430Z,98480.08
2022-12-12T03:30:01.331Z,98476.58
2022-12-12T03:34:14.619Z,98468.70
2022-12-12T03:38:24.418Z,98468.50
2022-12-12T03:42:35.078Z,98464.14
2022-12-12T03:46:43.704Z,98468.44
2022-12-12T03:50:53.456Z,98465.44
2022-12-12T03:55:19.796Z,98459.89
2022-12-12T04:00:00.903Z,98465.86
2022-12-12T04:04:26.897Z,98472.20
2022-12-12T04:08:29.756Z,98474.17
2022-12-12T04:12:57.063Z,98472.36
2022-12-12T04:17:03.853Z,98482.79
2022-12-12T04:22:12.933Z,98484.87
2022-12-12T04:26:39.614Z,98491.20
2022-12-12T04:30:41.797Z,98496.39
2022-12-12T04:34:51.604Z,98497.33
2022-12-12T04:38:55.328Z,98494.77
2022-12-12T04:43:08.466Z,98494.73
2022-12-12T04:47:12.731Z,98495.23
2022-12-12T04:51:18.507Z,98491.63
2022-12-12T04:55:26.564Z,98488.69
2022-12-12T04:59:29.458Z,98489.30
2022-12-12T05:03:39.501Z,98481.46
2022-12-12T05:07:48.764Z,98482.91
2022-12-12T05:11:50.701Z,98474.86
2022-12-12T05:15:55.491Z,98472.56
2022-12-12T05:19:58.363Z,98470.61
2022-12-12T05:24:00.255Z,98468.21
2022-12-12T05:28:02.480Z,98465.67
2022-12-12T05:32:04.575Z,98469.02
2022-12-12T05:36:07.086Z,98468.04
2022-12-12T05:40:11.888Z,98467.30
2022-12-12T05:44:13.766Z,98465.17
2022-12-12T05:48:18.398Z,98473.96
2022-12-12T05:52:25.357Z,98476.08
2022-12-12T05:56:27.304Z,98474.73
2022-12-12T06:00:29.288Z,98477.33
2022-12-12T06:04:31.278Z,98474.83
2022-12-12T06:08:33.296Z,98471.27
2022-12-12T06:12:35.277Z,98474.48
2022-12-12T06:16:37.270Z,98476.77
2022-12-12T06:20:39.234Z,98473.00
2022-12-12T06:24:41.832Z,98472.02
2022-12-12T06:28:44.044Z,98472.08
2022-12-12T06:32:45.997Z,98471.10
2022-12-12T06:36:48.271Z,98475.95
2022-12-12T06:40:50.194Z,98476.38
2022-12-12T06:44:52.084Z,98473.89
2022-12-12T06:48:55.531Z,98473.99
2022-12-12T06:52:57.511Z,98477.77
2022-12-12T06:56:59.608Z,98479.35
2022-12-12T07:01:02.553Z,98481.04
2022-12-12T07:05:04.717Z,98481.83
2022-12-12T07:09:07.490Z,98480.42
2022-12-12T07:13:10.505Z,98479.38
2022-12-12T07:17:12.449Z,98485.29
2022-12-12T07:21:17.581Z,98487.13
2022-12-12T07:25:19.522Z,98485.70
2022-12-12T07:29:21.490Z,98491.24
2022-12-12T07:33:28.373Z,98487.61
2022-12-12T07:37:35.854Z,98496.46
2022-12-12T07:41:40.625Z,98493.20
2022-12-12T07:45:47.222Z,98489.73
2022-12-12T07:49:49.154Z,98481.98
2022-12-12T07:53:51.230Z,98482.80
2022-12-12T07:57:53.232Z,98484.74
2022-12-12T08:01:55.195Z,98480.59
2022-12-12T08:05:57.171Z,98477.49
2022-12-12T08:09:59.148Z,98478.02
2022-12-12T08:14:01.099Z,98484.71
2022-12-12T08:18:02.991Z,98482.81
2022-12-12T08:22:04.989Z,98486.71
2022-12-12T08:26:09.606Z,98491.33
2022-12-12T08:30:12.010Z,98492.60
2022-12-12T08:34:14.207Z,98497.83
2022-12-12T08:38:16.156Z,98496.27
2022-12-12T08:42:18.124Z,98497.94
2022-12-12T08:46:21.334Z,98501.41
2022-12-12T08:50:23.427Z,98500.23
2022-12-12T08:54:26.215Z,98500.36
2022-12-12T08:58:28.303Z,98503.06
2022-12-12T09:02:30.492Z,98500.77
2022-12-12T09:06:32.707Z,98499.67
2022-12-12T09:10:34.686Z,98501.77
2022-12-12T09:14:36.620Z,98500.59
2022-12-12T09:18:44.591Z,98504.92
2022-12-12T09:22:50.126Z,98497.27
2022-12-12T09:26:52.092Z,98497.60
2022-12-12T09:30:54.658Z,98497.58
2022-12-12T09:34:56.712Z,98500.69
2022-12-12T09:38:58.649Z,98499.17
2022-12-12T09:43:01.764Z,98498.38
2022-12-12T09:47:12.368Z,98500.36
2022-12-12T09:51:14.574Z,98502.79
2022-12-12T09:55:19.755Z,98509.44
2022-12-12T09:59:37.127Z,98513.21
2022-12-12T10:04:18.556Z,98513.67
2022-12-12T10:08:36.576Z,98512.76
2022-12-12T10:12:39.580Z,98515.06
2022-12-12T10:16:43.656Z,98513.95
2022-12-12T10:20:52.749Z,98514.59
2022-12-12T10:25:03.418Z,98512.96
2022-12-12T10:29:12.070Z,98513.48
2022-12-12T10:33:37.857Z,98515.54
2022-12-12T10:37:54.989Z,98516.94
2022-12-12T10:42:12.619Z,98513.43
2022-12-12T10:46:35.918Z,98507.21
2022-12-12T10:51:07.050Z,98509.18
2022-12-12T10:55:18.825Z,98512.29
2022-12-12T10:59:22.718Z,98516.48
2022-12-12T11:03:47.504Z,98518.84
2022-12-12T11:08:36.342Z,98515.31
2022-12-12T11:12:38.683Z,98513.15
2022-12-12T11:16:43.887Z,98512.23
2022-12-12T11:21:08.108Z,98515.25
2022-12-12T11:25:31.826Z,98518.17
2022-12-12T11:29:39.754Z,98521.32
2022-12-12T11:33:54.861Z,98519.73
2022-12-12T11:38:06.473Z,98520.81
2022-12-12T11:42:14.406Z,98520.09
2022-12-12T11:46:25.441Z,98523.31
2022-12-12T11:50:30.057Z,98524.08
2022-12-12T11:54:33.036Z,98516.81
2022-12-12T11:58:53.663Z,98512.93
2022-12-12T12:03:08.243Z,98514.58
2022-12-12T12:07:28.921Z,98520.85
2022-12-12T12:11:41.533Z,98519.92
2022-12-12T12:15:53.326Z,98520.52
2022-12-12T12:20:17.491Z,98519.61
2022-12-12T12:24:35.325Z,98517.61
2022-12-12T12:29:00.715Z,98517.57
2022-12-12T12:33:17.377Z,98518.65
2022-12-12T12:37:28.185Z,98516.84
2022-12-12T12:41:55.237Z,98517.63
2022-12-12T12:46:09.665Z,98524.92
2022-12-12T12:50:25.851Z,98522.88
2022-12-12T12:54:39.343Z,98525.29
2022-12-12T12:58:46.653Z,98526.96
2022-12-12T13:03:08.339Z,98529.04
2022-12-12T13:07:25.385Z,98536.49
2022-12-12T13:11:44.124Z,98539.26
2022-12-12T13:15:59.783Z,98542.81
2022-12-12T13:20:04.127Z,98551.35
2022-12-12T13:24:14.186Z,98551.35
2022-12-12T13:28:42.358Z,98558.45
2022-12-12T13:33:03.514Z,98558.63
2022-12-12T13:37:06.543Z,98562.34
2022-12-12T13:41:09.933Z,98567.83
2022-12-12T13:45:39.860Z,98574.71
2022-12-12T13:49:54.834Z,98578.70
2022-12-12T13:54:11.698Z,98582.46
2022-12-12T13:58:20.941Z,98588.07
2022-12-12T14:02:34.173Z,98588.76
2022-12-12T14:06:36.239Z,98590.64
2022-12-12T14:10:42.881Z,98599.39
2022-12-12T14:15:04.065Z,98605.02
2022-12-12T14:19:20.276Z,98603.05
2022-12-12T14:23:26.390Z,98605.52
2022-12-12T14:28:01.630Z,98602.98
2022-12-12T14:32:12.917Z,98605.54
2022-12-12T14:36:52.264Z,98606.67
2022-12-12T14:40:59.902Z,98608.88
2022-12-12T14:45:01.801Z,98607.79
2022-12-12T14:49:05.307Z,98607.44
2022-12-12T14:53:20.473Z,98611.73
2022-12-12T14:57:23.818Z,98608.64
2022-12-12T15:01:33.855Z,98607.79
2022-12-12T15:05:35.876Z,98611.66
2022-12-12T15:09:39.141Z,98611.23
2022-12-12T15:13:56.467Z,98613.96
2022-12-12T15:18:00.810Z,98619.27
2022-12-12T15:22:10.495Z,98618.80
2022-12-12T15:26:21.618Z,98620.16
2022-12-12T15:30:39.193Z,98623.64
2022-12-12T15:34:42.703Z,98621.65
2022-12-12T15:38:45.298Z,98625.87
2022-12-12T15:42:53.071Z,98626.71
2022-12-12T15:46:58.255Z,98625.91
2022-12-12T15:51:06.532Z,98623.63
2022-12-12T15:55:21.271Z,98622.84
2022-12-12T15:59:30.889Z,98628.00
2022-12-12T16:03:34.128Z,98630.63
2022-12-12T16:07:37.407Z,98631.56
2022-12-12T16:11:47.735Z,98635.54
2022-12-12T16:15:49.950Z,98639.91
2022-12-12T16:20:04.457Z,98636.80
2022-12-12T16:24:21.759Z,98641.67
2022-12-12T16:28:27.215Z,98645.67
2022-12-12T16:32:29.290Z,98642.86
2022-12-12T16:36:32.801Z,98646.48
2022-12-12T16:40:36.561Z,98648.86
2022-12-12T16:44:38.769Z,98650.70
2022-12-12T16:48:40.684Z,98649.52
2022-12-12T16:52:42.622Z,98650.88
2022-12-12T16:56:50.115Z,98654.71
2022-12-12T17:00:52.766Z,98657.32
2022-12-12T17:04:54.946Z,98663.23
2022-12-12T17:08:56.842Z,98673.39
2022-12-12T17:12:58.967Z,98680.87
2022-12-12T17:17:02.816Z,98681.86
2022-12-12T17:21:05.739Z,98689.40
2022-12-12T17:25:08.377Z,98694.08
2022-12-12T17:29:10.432Z,98691.27
2022-12-12T17:33:18.638Z,98697.05
2022-12-12T17:37:20.613Z,98693.08
2022-12-12T17:41:22.509Z,98696.14
2022-12-12T17:45:24.509Z,98702.73
2022-12-12T17:49:26.695Z,98703.09
2022-12-12T17:53:37.785Z,98703.29
2022-12-12T17:57:40.210Z,98704.54
2022-12-12T18:01:42.149Z,98703.48
2022-12-12T18:05:44.464Z,98705.27
2022-12-12T18:09:46.406Z,98712.89
2022-12-12T18:13:49.470Z,98716.64
2022-12-12T18:17:54.746Z,98716.67
2022-12-12T18:22:01.464Z,98720.61
2022-12-12T18:26:23.689Z,98727.66
2022-12-12T18:30:25.646Z,98725.34
2022-12-12T18:34:27.916Z,98726.83
2022-12-12T18:38:31.177Z,98735.95
2022-12-12T18:42:33.093Z,98745.98
2022-12-12T18:46:42.303Z,98746.44
2022-12-12T18:50:45.260Z,98749.89
2022-12-12T18:54:47.202Z,98755.40
2022-12-12T18:58:49.553Z,98760.50
2022-12-12T19:02:51.694Z,98767.20
2022-12-12T19:06:54.705Z,98771.81
2022-12-12T19:10:56.813Z,98776.17
2022-12-12T19:15:16.372Z,98785.03
2022-12-12T19:19:19.090Z,98787.55
2022-12-12T19:23:21.269Z,98789.86
2022-12-12T19:27:23.194Z,98794.89
2022-12-12T19:31:25.814Z,98796.95
2022-12-12T19:35:27.799Z,98807.12
2022-12-12T19:39:29.849Z,98810.82
2022-12-12T19:43:31.889Z,98817.20
2022-12-12T19:47:34.274Z,98823.45
2022-12-12T19:51:39.077Z,98829.87
2022-12-12T19:55:46.734Z,98837.61
2022-12-12T19:59:48.795Z,98844.06
2022-12-12T20:04:05.747Z,98851.29
2022-12-12T20:08:07.788Z,98854.98
2022-12-12T20:12:09.759Z,98859.17
2022-12-12T20:16:16.159Z,98867.49
2022-12-12T20:20:18.260Z,98867.05
2022-12-12T20:24:25.605Z,98870.23
2022-12-12T20:28:27.710Z,98873.32
2022-12-12T20:32:29.629Z,98878.61
2022-12-12T20:36:34.398Z,98882.33
2022-12-12T20:40:38.764Z,98882.69
2022-12-12T20:44:40.808Z,98882.91
2022-12-12T20:48:43.280Z,98889.33
2022-12-12T20:52:45.216Z,98899.73
2022-12-12T20:56:48.859Z,98903.70
2022-12-12T21:00:50.748Z,98905.52
2022-12-12T21:04:53.832Z,98909.23
2022-12-12T21:08:59.107Z,98917.80
2022-12-12T21:13:01.299Z,98920.25
2022-12-12T21:17:03.404Z,98922.65
2022-12-12T21:21:09.009Z,98925.80
2022-12-12T21:25:11.101Z,98929.84
2022-12-12T21:29:13.817Z,98933.66
2022-12-12T21:33:15.725Z,98938.17
2022-12-12T21:37:17.750Z,98944.45
2022-12-12T21:41:21.920Z,98947.89
2022-12-12T21:45:24.064Z,98948.98
2022-12-12T21:49:26.508Z,98952.44
2022-12-12T21:53:35.373Z,98955.50
2022-12-12T21:57:37.407Z,98959.91
2022-12-12T22:01:40.567Z,98962.72
2022-12-12T22:05:42.590Z,98969.47
2022-12-12T22:09:44.531Z,98969.23
2022-12-12T22:14:04.667Z,98973.25
2022-12-12T22:18:06.649Z,98982.03
2022-12-12T22:22:08.709Z,98971.45
2022-12-12T22:26:21.316Z,98972.67
2022-12-12T22:30:23.258Z,98983.38
2022-12-12T22:34:25.668Z,98988.25
2022-12-12T22:38:27.602Z,98989.48
2022-12-12T22:42:29.561Z,98989.48
2022-12-12T22:46:32.499Z,98995.72
2022-12-12T22:50:34.501Z,98998.62
2022-12-12T22:54:36.473Z,99004.11
2022-12-12T22:58:38.638Z,99009.73
2022-12-12T23:02:40.555Z,99014.41
2022-12-12T23:06:43.947Z,99017.90
2022-12-12T23:10:46.006Z,99022.74
2022-12-12T23:14:47.943Z,99028.95
2022-12-12T23:18:50.698Z,99025.84
2022-12-12T23:22:52.672Z,99030.56
2022-12-12T23:26:54.616Z,99041.18
2022-12-12T23:30:57.763Z,99053.45
2022-12-12T23:34:59.699Z,99054.38
2022-12-12T23:39:05.812Z,99052.64
2022-12-12T23:43:08.167Z,99057.32
2022-12-12T23:47:10.089Z,99060.14
2022-12-12T23:51:12.003Z,99063.23
2022-12-12T23:55:14.086Z,99068.85
2022-12-12T23:59:18.539Z,99067.02
